Carbondale, Colorado
Current Conditions -  °F | °C
As of 10:39 PM on Friday 31 Oct 2014 (Local Time) from K5SM Reporting Station
Scattered Clouds Scattered Clouds  
Wind Chill: 40°   Ceiling: Unl
Heat Index: 43°   Visibility: 10mi
Dew Point: 27°   Wind: 5mph
Humidity: 53%   Direction: 210°SSW
Pressure: 30.32"   Gusts: NA
Location:  39.4°N, 107.21°W
Report Text: K5SM 010439Z AUTO 21004KT 10SM SCT120 06/M03 A3032 RMK AO2 LTG DSNT S
Loading
Personal Weather Stations






























Interactive Weather Map
Tropical Storm Tracking
New forecast layout! Learn more

10-Day Weather Forecast

Advertisements
Track Severe Weather on mobile